createdAt,value
2018-12-14T00:00:33.587Z,11.00
2018-12-14T00:03:03.351Z,10.77
2018-12-14T00:05:32.865Z,11.27
2018-12-14T00:08:00.669Z,10.80
2018-12-14T00:10:28.231Z,10.13
2018-12-14T00:12:55.755Z,10.93
2018-12-14T00:15:23.258Z,11.10
2018-12-14T00:17:50.727Z,11.10
2018-12-14T00:20:18.225Z,10.20
2018-12-14T00:22:45.799Z,10.90
2018-12-14T00:25:13.570Z,11.30
2018-12-14T00:27:41.405Z,11.57
2018-12-14T00:30:09.213Z,10.00
2018-12-14T00:32:37.096Z,11.00
2018-12-14T00:35:05.590Z,9.97
2018-12-14T00:37:33.051Z,10.93
2018-12-14T00:40:00.529Z,10.47
2018-12-14T00:42:28.118Z,9.70
2018-12-14T00:44:55.584Z,10.50
2018-12-14T00:47:23.163Z,9.63
2018-12-14T00:49:50.736Z,11.87
2018-12-14T00:52:18.261Z,11.27
2018-12-14T00:54:45.756Z,11.40
2018-12-14T00:57:13.397Z,9.33
2018-12-14T00:59:40.939Z,10.00
2018-12-14T01:02:13.090Z,10.17
2018-12-14T01:04:40.894Z,9.57
2018-12-14T01:07:08.437Z,9.70
2018-12-14T01:09:36.008Z,10.97
2018-12-14T01:12:05.726Z,10.80
2018-12-14T01:14:33.556Z,10.83
2018-12-14T01:17:01.218Z,11.77
2018-12-14T01:19:28.680Z,10.27
2018-12-14T01:21:56.125Z,10.30
2018-12-14T01:24:23.625Z,9.30
2018-12-14T01:26:51.096Z,10.77
2018-12-14T01:29:18.571Z,10.40
2018-12-14T01:31:46.029Z,10.03
2018-12-14T01:34:13.473Z,10.03
2018-12-14T01:36:41.079Z,9.63
2018-12-14T01:39:08.666Z,10.40
2018-12-14T01:41:36.153Z,9.97
2018-12-14T01:44:03.850Z,9.53
2018-12-14T01:46:31.448Z,9.87
2018-12-14T01:48:58.921Z,9.57
2018-12-14T01:51:26.580Z,9.63
2018-12-14T01:53:54.444Z,9.40
2018-12-14T01:56:21.987Z,9.20
2018-12-14T01:58:50.354Z,9.20
2018-12-14T02:01:18.140Z,9.50
2018-12-14T02:03:45.722Z,9.97
2018-12-14T02:06:13.496Z,10.30
2018-12-14T02:08:41.060Z,9.83
2018-12-14T02:11:09.370Z,8.87
2018-12-14T02:13:36.894Z,9.53
2018-12-14T02:16:04.500Z,9.70
2018-12-14T02:18:32.096Z,9.27
2018-12-14T02:20:59.617Z,9.63
2018-12-14T02:23:27.369Z,8.60
2018-12-14T02:25:54.933Z,10.40
2018-12-14T02:28:22.548Z,10.07
2018-12-14T02:30:50.054Z,10.77
2018-12-14T02:33:17.569Z,10.47
2018-12-14T02:35:45.317Z,10.40
2018-12-14T02:38:12.930Z,10.07
2018-12-14T02:40:40.435Z,10.70
2018-12-14T02:43:07.962Z,11.30
2018-12-14T02:45:35.699Z,10.60
2018-12-14T02:48:03.241Z,10.50
2018-12-14T02:50:30.717Z,10.27
2018-12-14T02:52:58.177Z,10.80
2018-12-14T02:55:25.606Z,10.70
2018-12-14T02:57:53.101Z,11.87
2018-12-14T03:00:20.789Z,9.97
2018-12-14T03:02:48.618Z,10.47
2018-12-14T03:05:16.176Z,10.40
2018-12-14T03:07:43.737Z,9.80
2018-12-14T03:10:11.232Z,10.80
2018-12-14T03:12:38.843Z,10.37
2018-12-14T03:15:06.693Z,10.53
2018-12-14T03:17:34.289Z,9.37
2018-12-14T03:20:02.130Z,10.70
2018-12-14T03:22:30.308Z,10.43
2018-12-14T03:24:57.945Z,9.97
2018-12-14T03:27:25.452Z,9.70
2018-12-14T03:29:53.103Z,10.27
2018-12-14T03:32:20.635Z,10.43
2018-12-14T03:34:48.241Z,9.60
2018-12-14T03:37:16.004Z,11.40
2018-12-14T03:39:43.461Z,10.27
2018-12-14T03:42:11.303Z,10.30
2018-12-14T03:44:38.803Z,9.33
2018-12-14T03:47:06.517Z,9.80
2018-12-14T03:49:33.979Z,9.10
2018-12-14T03:52:01.684Z,11.20
2018-12-14T03:54:29.438Z,10.43
2018-12-14T03:56:56.958Z,11.40
2018-12-14T03:59:24.465Z,10.40
2018-12-14T04:01:52.635Z,10.67
2018-12-14T04:04:20.164Z,10.53
2018-12-14T04:06:47.605Z,10.20
2018-12-14T04:09:15.743Z,9.43
2018-12-14T04:11:43.458Z,9.93
2018-12-14T04:14:10.973Z,10.53
2018-12-14T04:16:38.676Z,10.23
2018-12-14T04:19:06.170Z,10.60
2018-12-14T04:21:33.666Z,9.87
2018-12-14T04:24:01.154Z,9.27
2018-12-14T04:26:28.738Z,9.70
2018-12-14T04:28:56.268Z,9.80
2018-12-14T04:31:23.864Z,9.93
2018-12-14T04:33:51.371Z,9.93
2018-12-14T04:36:19.169Z,9.27
2018-12-14T04:38:48.649Z,8.30
2018-12-14T04:41:16.209Z,10.97
2018-12-14T04:43:43.968Z,10.70
2018-12-14T04:46:11.437Z,9.73
2018-12-14T04:48:38.930Z,9.57
2018-12-14T04:51:06.493Z,9.70
2018-12-14T04:53:34.116Z,9.27
2018-12-14T04:56:01.640Z,8.93
2018-12-14T04:58:29.178Z,9.70
2018-12-14T05:00:56.785Z,9.20
2018-12-14T05:03:24.429Z,8.33
2018-12-14T05:05:51.933Z,9.57
2018-12-14T05:08:19.509Z,8.90
2018-12-14T05:10:47.509Z,9.83
2018-12-14T05:13:15.086Z,9.73
2018-12-14T05:15:42.670Z,9.83
2018-12-14T05:18:10.755Z,9.93
2018-12-14T05:20:39.385Z,10.40
2018-12-14T05:23:07.634Z,10.43
2018-12-14T05:25:35.666Z,10.13
2018-12-14T05:28:03.306Z,9.30
2018-12-14T05:30:30.843Z,8.63
2018-12-14T05:32:58.325Z,9.40
2018-12-14T05:35:25.887Z,9.60
2018-12-14T05:37:53.705Z,9.40
2018-12-14T05:40:21.453Z,10.27
2018-12-14T05:42:49.425Z,9.03
2018-12-14T05:45:16.908Z,8.50
2018-12-14T05:47:44.383Z,9.47
2018-12-14T05:50:11.938Z,8.60
2018-12-14T05:52:39.725Z,8.70
2018-12-14T05:55:07.233Z,9.03
2018-12-14T05:57:36.815Z,8.60
2018-12-14T06:00:06.754Z,8.47
2018-12-14T06:02:34.807Z,9.17
2018-12-14T06:05:02.346Z,9.43
2018-12-14T06:07:29.860Z,9.43
2018-12-14T06:09:57.782Z,7.60
2018-12-14T06:12:25.545Z,8.87
2018-12-14T06:14:53.050Z,8.33
2018-12-14T06:17:20.675Z,8.33
2018-12-14T06:19:48.322Z,7.63
2018-12-14T06:22:15.876Z,8.33
2018-12-14T06:24:43.416Z,8.27
2018-12-14T06:27:11.471Z,9.33
2018-12-14T06:29:39.141Z,8.40
2018-12-14T06:32:07.833Z,9.20
2018-12-14T06:34:35.870Z,9.80
2018-12-14T06:37:04.167Z,9.70
2018-12-14T06:39:31.887Z,8.23
2018-12-14T06:41:59.983Z,8.40
2018-12-14T06:44:28.170Z,8.87
2018-12-14T06:46:55.898Z,9.50
2018-12-14T06:49:23.398Z,9.00
2018-12-14T06:51:50.922Z,9.37
2018-12-14T06:54:19.025Z,10.17
2018-12-14T06:56:46.605Z,8.57
2018-12-14T06:59:14.105Z,10.00
2018-12-14T07:01:41.650Z,10.30
2018-12-14T07:04:09.185Z,9.37
2018-12-14T07:06:36.854Z,9.47
2018-12-14T07:09:05.856Z,8.17
2018-12-14T07:11:35.444Z,9.13
2018-12-14T07:14:03.685Z,10.07
2018-12-14T07:16:31.272Z,10.70
2018-12-14T07:18:58.789Z,10.70
2018-12-14T07:21:26.329Z,10.50
2018-12-14T07:23:53.780Z,10.50
2018-12-14T07:26:21.361Z,10.50
2018-12-14T07:28:50.132Z,11.40
2018-12-14T07:31:17.636Z,10.50
2018-12-14T07:33:45.201Z,10.47
2018-12-14T07:36:13.170Z,10.63
2018-12-14T07:38:40.821Z,10.70
2018-12-14T07:41:08.380Z,12.17
2018-12-14T07:43:35.837Z,12.10
2018-12-14T07:46:03.385Z,11.93
2018-12-14T07:48:30.965Z,11.10
2018-12-14T07:50:58.878Z,10.40
2018-12-14T07:53:27.272Z,11.57
2018-12-14T07:55:54.872Z,11.57
2018-12-14T07:58:22.398Z,10.10
2018-12-14T08:00:49.904Z,9.67
2018-12-14T08:03:17.505Z,11.87
2018-12-14T08:05:45.088Z,10.90
2018-12-14T08:08:12.941Z,10.27
2018-12-14T08:10:40.548Z,10.50
2018-12-14T08:13:08.487Z,10.83
2018-12-14T08:15:36.239Z,12.00
2018-12-14T08:18:03.865Z,11.33
2018-12-14T08:20:31.380Z,10.43
2018-12-14T08:22:59.041Z,10.80
2018-12-14T08:25:26.729Z,11.83
2018-12-14T08:27:54.276Z,10.60
2018-12-14T08:30:22.018Z,11.30
2018-12-14T08:32:49.820Z,11.03
2018-12-14T08:35:17.324Z,10.77
2018-12-14T08:37:44.815Z,11.30
2018-12-14T08:40:12.329Z,11.67
2018-12-14T08:42:40.193Z,11.90
2018-12-14T08:45:08.217Z,12.40
2018-12-14T08:47:35.729Z,12.30
2018-12-14T08:50:04.005Z,13.00
2018-12-14T08:52:31.754Z,11.90
2018-12-14T08:54:59.386Z,12.27
2018-12-14T08:57:26.996Z,10.57
2018-12-14T08:59:54.719Z,11.43
2018-12-14T09:02:22.172Z,13.40
2018-12-14T09:04:49.725Z,12.47
2018-12-14T09:07:17.367Z,11.27
2018-12-14T09:09:45.042Z,11.83
2018-12-14T09:12:12.535Z,12.33
2018-12-14T09:14:40.174Z,12.47
2018-12-14T09:17:07.655Z,11.00
2018-12-14T09:19:35.282Z,11.27
2018-12-14T09:22:02.903Z,11.60
2018-12-14T09:24:30.629Z,11.33
2018-12-14T09:26:58.101Z,10.80
2018-12-14T09:29:25.708Z,11.20
2018-12-14T09:31:53.455Z,11.10
2018-12-14T09:34:21.053Z,11.07
2018-12-14T09:36:49.039Z,12.27
2018-12-14T09:39:16.788Z,12.10
2018-12-14T09:41:44.373Z,12.13
2018-12-14T09:44:12.071Z,11.43
2018-12-14T09:46:39.866Z,12.47
2018-12-14T09:49:07.567Z,11.90
2018-12-14T09:51:35.160Z,11.70
2018-12-14T09:54:02.764Z,11.60
2018-12-14T09:56:30.406Z,12.10
2018-12-14T09:58:57.877Z,11.37
2018-12-14T10:01:25.413Z,12.43
2018-12-14T10:03:53.257Z,12.17
2018-12-14T10:06:20.822Z,11.07
2018-12-14T10:08:48.449Z,11.60
2018-12-14T10:11:16.296Z,12.23
2018-12-14T10:13:43.917Z,11.90
2018-12-14T10:16:12.192Z,12.43
2018-12-14T10:18:40.041Z,14.50
2018-12-14T10:21:07.673Z,12.57
2018-12-14T10:23:35.160Z,14.20
2018-12-14T10:26:02.950Z,11.40
2018-12-14T10:28:32.410Z,11.97
2018-12-14T10:30:59.868Z,11.90
2018-12-14T10:33:27.714Z,12.50
2018-12-14T10:36:12.353Z,12.20
2018-12-14T10:38:40.333Z,11.47
2018-12-14T10:41:07.960Z,11.60
2018-12-14T10:43:35.825Z,12.80
2018-12-14T10:46:03.426Z,12.90
2018-12-14T10:48:30.973Z,12.30
2018-12-14T10:50:59.067Z,11.50
2018-12-14T10:53:26.626Z,11.80
2018-12-14T10:55:54.309Z,13.13
2018-12-14T10:58:21.766Z,13.50
2018-12-14T11:01:56.173Z,15.10
2018-12-14T11:04:24.553Z,14.93
2018-12-14T11:06:52.069Z,12.60
2018-12-14T11:09:19.591Z,13.50
2018-12-14T11:11:47.115Z,20.23
2018-12-14T11:14:14.623Z,19.77
2018-12-14T11:16:42.299Z,23.20
2018-12-14T11:19:09.746Z,16.50
2018-12-14T11:21:37.409Z,12.13
2018-12-14T11:24:05.105Z,10.83
2018-12-14T11:26:32.801Z,11.60
2018-12-14T11:29:00.522Z,11.90
2018-12-14T11:31:28.005Z,10.10
2018-12-14T11:33:55.625Z,9.97
2018-12-14T11:36:23.596Z,9.63
2018-12-14T11:38:51.186Z,8.87
2018-12-14T11:41:18.810Z,8.80
2018-12-14T11:43:46.408Z,9.83
2018-12-14T11:46:14.213Z,9.53
2018-12-14T11:48:41.665Z,9.80
2018-12-14T11:51:10.940Z,9.17
2018-12-14T11:53:38.563Z,9.87
2018-12-14T11:56:06.026Z,10.10
2018-12-14T11:58:33.581Z,10.23
2018-12-14T12:01:01.168Z,9.37
2018-12-14T12:03:30.896Z,9.20
2018-12-14T12:05:58.540Z,10.33
2018-12-14T12:08:26.075Z,9.90
2018-12-14T12:10:53.637Z,11.10
2018-12-14T12:13:21.181Z,10.40
2018-12-14T12:15:48.801Z,11.97
2018-12-14T12:18:16.417Z,11.37
2018-12-14T12:20:43.946Z,11.43
2018-12-14T12:23:11.708Z,12.03
2018-12-14T12:25:39.520Z,11.33
2018-12-14T12:28:06.966Z,11.60
2018-12-14T12:30:34.425Z,11.30
2018-12-14T12:33:03.433Z,12.50
2018-12-14T12:35:31.272Z,12.50
2018-12-14T12:38:00.975Z,12.33
2018-12-14T12:40:28.481Z,11.73
2018-12-14T12:42:56.017Z,13.93
2018-12-14T12:45:23.765Z,13.50
2018-12-14T12:47:51.241Z,11.77
2018-12-14T12:50:18.727Z,12.30
2018-12-14T12:52:46.248Z,12.17
2018-12-14T12:55:14.057Z,11.73
2018-12-14T12:57:41.582Z,11.63
2018-12-14T13:00:09.324Z,12.10
2018-12-14T13:02:37.928Z,11.20
2018-12-14T13:05:05.777Z,12.50
2018-12-14T13:07:33.500Z,11.60
2018-12-14T13:10:01.033Z,13.00
2018-12-14T13:12:28.776Z,11.90
2018-12-14T13:14:56.626Z,11.40
2018-12-14T13:17:24.072Z,12.13
2018-12-14T13:19:51.573Z,12.17
2018-12-14T13:22:22.047Z,11.40
2018-12-14T13:24:49.672Z,10.27
2018-12-14T13:27:20.276Z,11.30
2018-12-14T13:29:47.226Z,10.07
2018-12-14T13:32:14.892Z,13.83
2018-12-14T13:34:42.419Z,11.30
2018-12-14T13:37:10.061Z,11.33
2018-12-14T13:39:37.869Z,13.50
2018-12-14T13:42:05.457Z,14.97
2018-12-14T13:44:33.080Z,15.43
2018-12-14T13:47:00.618Z,22.70
2018-12-14T13:49:28.133Z,12.43
2018-12-14T13:51:55.653Z,11.70
2018-12-14T13:54:23.174Z,9.87
2018-12-14T13:56:51.619Z,11.60
2018-12-14T13:59:19.274Z,10.83
2018-12-14T14:01:46.930Z,10.87
2018-12-14T14:04:15.549Z,11.93
2018-12-14T14:06:43.073Z,10.70
2018-12-14T14:09:10.568Z,12.20
2018-12-14T14:11:40.085Z,11.60
2018-12-14T14:14:07.725Z,12.87
2018-12-14T14:16:35.383Z,10.63
2018-12-14T14:19:03.086Z,11.30
2018-12-14T14:21:30.658Z,12.47
2018-12-14T14:24:06.959Z,14.80
2018-12-14T14:26:35.847Z,14.10
2018-12-14T14:29:03.613Z,12.90
2018-12-14T14:31:31.746Z,12.47
2018-12-14T14:33:59.363Z,11.57
2018-12-14T14:36:26.929Z,11.37
2018-12-14T14:38:54.401Z,11.33
2018-12-14T14:41:21.913Z,11.63
2018-12-14T14:43:49.485Z,12.20
2018-12-14T14:46:16.937Z,13.30
2018-12-14T14:48:44.929Z,11.77
2018-12-14T14:51:12.943Z,13.50
2018-12-14T14:53:40.497Z,12.90
2018-12-14T14:56:08.066Z,11.47
2018-12-14T14:58:35.546Z,13.27
2018-12-14T15:01:03.089Z,13.47
2018-12-14T15:03:31.048Z,12.30
2018-12-14T15:05:58.636Z,12.70
2018-12-14T15:08:26.190Z,13.50
2018-12-14T15:10:53.821Z,13.20
2018-12-14T15:13:24.541Z,12.10
2018-12-14T15:15:51.991Z,14.63
2018-12-14T15:18:19.507Z,13.20
2018-12-14T15:20:47.246Z,12.80
2018-12-14T15:23:14.996Z,13.90
2018-12-14T15:25:42.529Z,14.50
2018-12-14T15:28:10.123Z,14.97
2018-12-14T15:30:37.717Z,13.87
2018-12-14T15:33:05.390Z,13.87
2018-12-14T15:35:33.030Z,13.10
2018-12-14T15:38:00.833Z,12.97
2018-12-14T15:40:28.294Z,12.70
2018-12-14T15:42:55.796Z,12.43
2018-12-14T15:45:23.563Z,12.90
2018-12-14T15:47:51.449Z,12.80
2018-12-14T15:50:18.977Z,13.20
2018-12-14T15:52:46.575Z,14.00
2018-12-14T15:55:14.205Z,14.53
2018-12-14T15:57:41.705Z,13.27
2018-12-14T16:00:09.303Z,13.23
2018-12-14T16:02:37.225Z,12.83
2018-12-14T16:05:04.964Z,12.77
2018-12-14T16:07:32.708Z,14.67
2018-12-14T16:10:00.196Z,12.60
2018-12-14T16:12:27.934Z,13.03
2018-12-14T16:14:55.753Z,12.67
2018-12-14T16:17:23.191Z,13.80
2018-12-14T16:19:50.650Z,12.70
2018-12-14T16:22:18.233Z,12.00
2018-12-14T16:24:46.385Z,11.90
2018-12-14T16:27:14.266Z,12.60
2018-12-14T16:29:41.877Z,14.47
2018-12-14T16:32:10.789Z,13.50
2018-12-14T16:34:38.383Z,13.60
2018-12-14T16:37:06.454Z,12.77
2018-12-14T16:39:34.594Z,12.73
2018-12-14T16:42:02.269Z,13.10
2018-12-14T16:44:31.033Z,13.97
2018-12-14T16:46:58.539Z,13.10
2018-12-14T16:49:26.184Z,13.87
2018-12-14T16:51:53.695Z,13.67
2018-12-14T16:54:21.276Z,14.10
2018-12-14T16:56:48.868Z,14.73
2018-12-14T16:59:16.603Z,15.03
2018-12-14T17:01:44.325Z,16.40
2018-12-14T17:04:11.814Z,15.07
2018-12-14T17:06:39.412Z,14.50
2018-12-14T17:09:07.023Z,13.53
2018-12-14T17:11:36.627Z,13.77
2018-12-14T17:14:04.161Z,15.00
2018-12-14T17:16:31.630Z,15.90
2018-12-14T17:18:59.245Z,14.80
2018-12-14T17:21:26.857Z,14.90
2018-12-14T17:23:54.417Z,14.57
2018-12-14T17:26:21.938Z,16.57
2018-12-14T17:28:49.821Z,15.37
2018-12-14T17:31:17.529Z,15.10
2018-12-14T17:33:45.081Z,13.70
2018-12-14T17:36:12.598Z,14.30
2018-12-14T17:38:40.373Z,13.37
2018-12-14T17:41:08.383Z,13.57
2018-12-14T17:43:36.042Z,15.70
2018-12-14T17:46:03.535Z,15.20
2018-12-14T17:48:31.625Z,15.27
2018-12-14T17:50:59.531Z,16.27
2018-12-14T17:53:27.077Z,16.00
2018-12-14T17:55:54.602Z,16.47
2018-12-14T17:58:22.129Z,16.77
2018-12-14T18:00:49.845Z,14.87
2018-12-14T18:03:17.350Z,17.77
2018-12-14T18:05:44.861Z,16.93
2018-12-14T18:08:12.426Z,20.70
2018-12-14T18:10:40.005Z,25.27
2018-12-14T18:13:07.853Z,24.87
2018-12-14T18:15:35.390Z,19.60
2018-12-14T18:18:02.898Z,29.87
2018-12-14T18:20:30.373Z,21.53
2018-12-14T18:22:58.021Z,27.10
2018-12-14T18:25:25.872Z,28.63
2018-12-14T18:27:53.367Z,22.90
2018-12-14T18:30:20.858Z,20.50
2018-12-14T18:32:48.437Z,24.77
2018-12-14T18:35:15.901Z,24.70
2018-12-14T18:37:43.526Z,26.13
2018-12-14T18:40:11.337Z,24.10
2018-12-14T18:42:38.985Z,22.33
2018-12-14T18:45:06.881Z,20.97
2018-12-14T18:47:34.725Z,22.27
2018-12-14T18:50:02.794Z,24.87
2018-12-14T18:52:30.768Z,24.60
2018-12-14T18:54:58.249Z,28.27
2018-12-14T18:57:25.905Z,24.03
2018-12-14T18:59:53.408Z,22.73
2018-12-14T19:02:21.034Z,27.00
2018-12-14T19:04:48.506Z,20.53
2018-12-14T19:07:16.103Z,20.50
2018-12-14T19:09:44.929Z,17.77
2018-12-14T19:12:12.526Z,17.57
2018-12-14T19:14:40.033Z,19.30
2018-12-14T19:17:07.557Z,19.33
2018-12-14T19:19:35.034Z,17.27
2018-12-14T19:22:09.568Z,15.50
2018-12-14T19:24:37.182Z,15.47
2018-12-14T19:27:04.710Z,18.57
2018-12-14T19:29:32.373Z,15.60
2018-12-14T19:31:59.833Z,15.87
2018-12-14T19:34:31.410Z,15.40
2018-12-14T19:36:56.982Z,15.00
2018-12-14T19:39:25.792Z,15.67
2018-12-14T19:41:53.394Z,16.30
2018-12-14T19:44:20.856Z,17.30
2018-12-14T19:46:48.592Z,19.13
2018-12-14T19:49:16.102Z,17.37
2018-12-14T19:51:43.580Z,14.13
2018-12-14T19:54:11.090Z,14.00
2018-12-14T19:56:38.751Z,15.43
2018-12-14T19:59:06.302Z,17.27
2018-12-14T20:01:34.134Z,15.03
2018-12-14T20:04:01.738Z,14.23
2018-12-14T20:06:29.459Z,16.33
2018-12-14T20:08:57.036Z,17.13
2018-12-14T20:11:24.540Z,17.10
2018-12-14T20:13:54.109Z,16.17
2018-12-14T20:16:22.689Z,15.90
2018-12-14T20:18:50.452Z,16.83
2018-12-14T20:21:18.012Z,16.83
2018-12-14T20:23:45.571Z,16.37
2018-12-14T20:26:13.926Z,17.00
2018-12-14T20:28:41.406Z,18.10
2018-12-14T20:31:09.322Z,16.80
2018-12-14T20:33:36.968Z,16.13
2018-12-14T20:36:04.460Z,17.13
2018-12-14T20:38:31.953Z,17.63
2018-12-14T20:40:59.713Z,15.87
2018-12-14T20:43:27.345Z,17.27
2018-12-14T20:45:55.610Z,16.80
2018-12-14T20:48:23.225Z,17.27
2018-12-14T20:50:51.160Z,18.20
2018-12-14T20:53:18.716Z,15.50
2018-12-14T20:55:46.301Z,18.00
2018-12-14T20:58:13.825Z,16.90
2018-12-14T21:00:41.537Z,15.77
2018-12-14T21:03:09.244Z,17.17
2018-12-14T21:05:36.733Z,17.87
2018-12-14T21:08:06.331Z,15.43
2018-12-14T21:10:33.864Z,16.90
2018-12-14T21:13:01.508Z,16.97
2018-12-14T21:15:29.409Z,17.77
2018-12-14T21:17:57.352Z,17.93
2018-12-14T21:20:24.869Z,17.87
2018-12-14T21:22:52.575Z,17.90
2018-12-14T21:25:20.414Z,16.30
2018-12-14T21:27:48.394Z,18.53
2018-12-14T21:30:16.546Z,17.00
2018-12-14T21:32:44.403Z,16.37
2018-12-14T21:35:14.647Z,19.00
2018-12-14T21:37:45.299Z,18.23
2018-12-14T21:40:17.262Z,16.53
2018-12-14T21:42:48.819Z,18.50
2018-12-14T21:45:20.604Z,16.80
2018-12-14T21:47:48.513Z,16.40
2018-12-14T21:50:17.201Z,19.13
2018-12-14T21:52:44.805Z,18.20
2018-12-14T21:55:12.354Z,18.33
2018-12-14T21:57:40.288Z,17.53
2018-12-14T22:00:10.022Z,19.17
2018-12-14T22:02:37.793Z,20.07
2018-12-14T22:05:06.211Z,19.50
2018-12-14T22:07:33.746Z,17.63
2018-12-14T22:10:01.491Z,18.13
2018-12-14T22:12:29.701Z,18.43
2018-12-14T22:14:57.185Z,18.37
2018-12-14T22:17:24.676Z,19.27
2018-12-14T22:19:52.153Z,19.20
2018-12-14T22:22:19.746Z,19.53
2018-12-14T22:24:47.422Z,21.47
2018-12-14T22:27:23.979Z,18.63
2018-12-14T22:29:54.068Z,19.90
2018-12-14T22:32:21.753Z,20.17
2018-12-14T22:34:49.458Z,21.33
2018-12-14T22:37:17.153Z,19.20
2018-12-14T22:39:45.204Z,20.33
2018-12-14T22:42:13.091Z,19.20
2018-12-14T22:44:40.838Z,19.80
2018-12-14T22:47:08.519Z,20.07
2018-12-14T22:49:36.207Z,19.57
2018-12-14T22:52:04.148Z,21.00
2018-12-14T22:54:31.821Z,20.77
2018-12-14T22:56:59.605Z,21.80
2018-12-14T22:59:27.298Z,21.93
2018-12-14T23:02:06.869Z,19.87
2018-12-14T23:04:35.879Z,21.10
2018-12-14T23:07:03.634Z,20.13
2018-12-14T23:09:31.453Z,20.37
2018-12-14T23:11:59.359Z,22.00
2018-12-14T23:14:27.466Z,20.67
2018-12-14T23:16:55.264Z,21.93
2018-12-14T23:19:22.958Z,22.43
2018-12-14T23:21:50.737Z,20.17
2018-12-14T23:24:18.819Z,21.37
2018-12-14T23:26:46.496Z,20.90
2018-12-14T23:29:14.346Z,21.23
2018-12-14T23:31:41.974Z,22.17
2018-12-14T23:34:09.642Z,21.83
2018-12-14T23:36:37.094Z,22.30
2018-12-14T23:39:06.265Z,21.33
2018-12-14T23:41:36.100Z,23.47
2018-12-14T23:44:03.875Z,22.17
2018-12-14T23:46:31.462Z,23.27
2018-12-14T23:48:59.104Z,22.17
2018-12-14T23:51:26.866Z,21.60
2018-12-14T23:53:54.702Z,20.00
2018-12-14T23:56:22.250Z,23.40
2018-12-14T23:58:50.117Z,22.53
